createdAt,value
2023-04-18T00:09:46.273Z,1010.41
2023-04-18T00:19:51.705Z,1010.40
2023-04-18T00:29:57.298Z,1010.35
2023-04-18T00:40:02.816Z,1010.32
2023-04-18T00:50:08.107Z,1010.25
2023-04-18T01:00:13.850Z,1010.23
2023-04-18T01:10:19.325Z,1010.14
2023-04-18T01:20:24.164Z,1010.13
2023-04-18T01:30:30.032Z,1010.18
2023-04-18T01:40:35.509Z,1010.14
2023-04-18T01:50:41.021Z,1010.06
2023-04-18T02:00:46.276Z,1009.87
2023-04-18T02:10:51.639Z,1009.88
2023-04-18T02:20:58.059Z,1009.90
2023-04-18T02:31:03.710Z,1010.03
2023-04-18T02:41:09.057Z,1010.05
2023-04-18T02:51:14.536Z,1010.04
2023-04-18T03:01:19.862Z,1010.04
2023-04-18T03:11:25.243Z,1010.13
2023-04-18T03:21:31.165Z,1010.12
2023-04-18T03:31:37.519Z,1010.10
2023-04-18T03:41:43.914Z,1010.04
2023-04-18T03:51:49.739Z,1010.19
2023-04-18T04:01:55.595Z,1010.15
2023-04-18T04:12:01.216Z,1010.14
2023-04-18T04:22:07.008Z,1010.16
2023-04-18T04:32:11.105Z,1010.24
2023-04-18T04:42:15.887Z,1010.35
2023-04-18T04:52:22.039Z,1010.36
2023-04-18T05:02:26.354Z,1010.41
2023-04-18T05:12:33.155Z,1010.48
2023-04-18T05:22:39.570Z,1010.50
2023-04-18T05:32:45.613Z,1010.58
2023-04-18T05:42:51.031Z,1010.56
2023-04-18T05:52:56.080Z,1010.63
2023-04-18T06:03:02.153Z,1010.69
2023-04-18T06:13:08.140Z,1010.78
2023-04-18T06:23:13.652Z,1010.84
2023-04-18T06:33:19.277Z,1010.91
2023-04-18T06:43:24.983Z,1010.90
2023-04-18T06:53:30.450Z,1010.84
2023-04-18T07:03:36.025Z,1010.95
2023-04-18T07:13:42.115Z,1011.02
2023-04-18T07:23:47.499Z,1011.08
2023-04-18T07:33:52.969Z,1011.13
2023-04-18T07:43:58.821Z,1011.19
2023-04-18T07:54:04.410Z,1011.33
2023-04-18T08:04:10.446Z,1011.42
2023-04-18T08:14:16.692Z,1011.45
2023-04-18T08:24:22.736Z,1011.47
2023-04-18T08:34:28.570Z,1011.49
2023-04-18T08:44:34.250Z,1011.51
2023-04-18T08:54:40.273Z,1011.39
2023-04-18T09:04:45.894Z,1011.52
2023-04-18T09:14:51.265Z,1011.55
2023-04-18T09:24:58.461Z,1011.54
2023-04-18T09:35:05.736Z,1011.59
2023-04-18T09:45:12.942Z,1011.42
2023-04-18T09:55:20.497Z,1011.65
2023-04-18T10:05:27.747Z,1011.60
2023-04-18T10:15:35.115Z,1011.62
2023-04-18T10:25:42.544Z,1011.59
2023-04-18T10:35:49.486Z,1011.54
2023-04-18T10:45:56.203Z,1011.48
2023-04-18T10:56:03.276Z,1011.43
2023-04-18T11:06:10.694Z,1011.36
2023-04-18T11:16:18.805Z,1011.21
2023-04-18T11:26:25.604Z,1011.21
2023-04-18T11:36:32.926Z,1011.19
2023-04-18T11:46:39.504Z,1011.22
2023-04-18T11:56:46.584Z,1011.27
2023-04-18T12:06:53.788Z,1011.24
2023-04-18T12:17:01.390Z,1011.23
2023-04-18T12:27:08.548Z,1011.18
2023-04-18T12:37:16.834Z,1011.20
2023-04-18T12:47:23.703Z,1011.13
2023-04-18T12:57:31.870Z,1011.05
2023-04-18T13:07:40.416Z,1011.14
2023-04-18T13:17:47.968Z,1011.13
2023-04-18T13:27:55.343Z,1011.02
2023-04-18T13:38:02.631Z,1010.97
2023-04-18T13:48:09.697Z,1010.93
2023-04-18T13:58:16.988Z,1010.96
2023-04-18T14:08:24.207Z,1010.99
2023-04-18T14:18:31.439Z,1010.94
2023-04-18T14:28:38.805Z,1010.99
2023-04-18T14:38:46.506Z,1010.88
2023-04-18T14:48:53.725Z,1010.95
2023-04-18T14:59:02.445Z,1010.88
2023-04-18T15:09:09.958Z,1010.94
2023-04-18T15:19:17.213Z,1010.94
2023-04-18T15:29:22.810Z,1010.93
2023-04-18T15:39:28.661Z,1011.09
2023-04-18T15:49:33.985Z,1011.23
2023-04-18T15:59:39.868Z,1011.30
2023-04-18T16:09:45.585Z,1011.31
2023-04-18T16:19:51.188Z,1011.40
2023-04-18T16:29:56.738Z,1011.33
2023-04-18T16:40:02.252Z,1011.29
2023-04-18T16:50:07.705Z,1011.24
2023-04-18T17:00:12.755Z,1011.37
2023-04-18T17:10:18.477Z,1011.44
2023-04-18T17:20:24.891Z,1011.39
2023-04-18T17:30:30.335Z,1011.48
2023-04-18T17:40:35.929Z,1011.47
2023-04-18T17:50:41.591Z,1011.55
2023-04-18T18:00:46.895Z,1011.58
2023-04-18T18:10:52.581Z,1011.65
2023-04-18T18:20:58.862Z,1011.71
2023-04-18T18:31:04.651Z,1011.73
2023-04-18T18:41:10.364Z,1011.83
2023-04-18T18:51:15.628Z,1011.88
2023-04-18T19:01:24.867Z,1011.90
2023-04-18T19:11:30.049Z,1011.86
2023-04-18T19:21:36.105Z,1011.86
2023-04-18T19:31:41.752Z,1011.87
2023-04-18T19:41:47.744Z,1011.86
2023-04-18T19:51:53.340Z,1011.84
2023-04-18T20:02:02.042Z,1011.85
2023-04-18T20:12:09.315Z,1011.82
2023-04-18T20:22:15.187Z,1011.84
2023-04-18T20:32:21.197Z,1011.77
2023-04-18T20:42:26.453Z,1011.74
2023-04-18T20:52:32.443Z,1011.73
2023-04-18T21:02:38.460Z,1011.70
2023-04-18T21:12:44.404Z,1011.70
2023-04-18T21:22:50.113Z,1011.66
2023-04-18T21:32:55.934Z,1011.63
2023-04-18T21:43:01.775Z,1011.57
2023-04-18T21:53:07.575Z,1011.51
2023-04-18T22:03:13.552Z,1011.42
2023-04-18T22:13:19.209Z,1011.37
2023-04-18T22:23:24.884Z,1011.23
2023-04-18T22:33:30.601Z,1011.13
2023-04-18T22:43:36.397Z,1011.07
2023-04-18T22:53:41.927Z,1011.01
2023-04-18T23:03:47.692Z,1010.97
2023-04-18T23:13:53.314Z,1010.93
2023-04-18T23:23:58.932Z,1010.91
2023-04-18T23:34:04.529Z,1010.92
2023-04-18T23:44:10.449Z,1010.88
2023-04-18T23:54:16.157Z,1010.73
